sensor_id;sensor_type;location;lat;lon;timestamp;P1;durP1;ratioP1;P2;durP2;ratioP2
13605;SDS011;6874;52.084;5.090;2022-09-02T00:01:56;13.03;;;12.63;;
13605;SDS011;6874;52.084;5.090;2022-09-02T00:04:23;13.50;;;13.10;;
13605;SDS011;6874;52.084;5.090;2022-09-02T00:06:50;13.70;;;13.30;;
13605;SDS011;6874;52.084;5.090;2022-09-02T00:09:19;15.13;;;14.63;;
13605;SDS011;6874;52.084;5.090;2022-09-02T00:11:47;14.17;;;13.77;;
13605;SDS011;6874;52.084;5.090;2022-09-02T00:14:20;12.87;;;12.47;;
13605;SDS011;6874;52.084;5.090;2022-09-02T00:16:51;12.93;;;12.53;;
13605;SDS011;6874;52.084;5.090;2022-09-02T00:19:18;13.77;;;13.37;;
13605;SDS011;6874;52.084;5.090;2022-09-02T00:21:45;14.27;;;13.87;;
13605;SDS011;6874;52.084;5.090;2022-09-02T00:24:11;12.50;;;12.10;;
13605;SDS011;6874;52.084;5.090;2022-09-02T00:26:37;13.33;;;12.93;;
13605;SDS011;6874;52.084;5.090;2022-09-02T00:29:03;14.33;;;13.93;;
13605;SDS011;6874;52.084;5.090;2022-09-02T00:31:29;12.93;;;12.53;;
13605;SDS011;6874;52.084;5.090;2022-09-02T00:33:55;12.10;;;11.70;;
13605;SDS011;6874;52.084;5.090;2022-09-02T00:36:20;12.97;;;12.57;;
13605;SDS011;6874;52.084;5.090;2022-09-02T00:38:46;13.57;;;13.17;;
13605;SDS011;6874;52.084;5.090;2022-09-02T00:41:12;12.70;;;12.30;;
13605;SDS011;6874;52.084;5.090;2022-09-02T00:46:19;12.73;;;12.33;;
13605;SDS011;6874;52.084;5.090;2022-09-02T00:51:54;11.07;;;10.77;;
13605;SDS011;6874;52.084;5.090;2022-09-02T00:54:24;11.50;;;11.20;;
13605;SDS011;6874;52.084;5.090;2022-09-02T00:56:51;12.63;;;12.23;;
13605;SDS011;6874;52.084;5.090;2022-09-02T00:59:42;13.07;;;12.67;;
13605;SDS011;6874;52.084;5.090;2022-09-02T01:02:10;12.13;;;11.73;;
13605;SDS011;6874;52.084;5.090;2022-09-02T01:04:37;11.70;;;11.40;;
13605;SDS011;6874;52.084;5.090;2022-09-02T01:07:03;13.17;;;12.77;;
13605;SDS011;6874;52.084;5.090;2022-09-02T01:09:30;12.50;;;12.10;;
13605;SDS011;6874;52.084;5.090;2022-09-02T01:11:57;14.33;;;13.93;;
13605;SDS011;6874;52.084;5.090;2022-09-02T01:14:26;13.10;;;12.70;;
13605;SDS011;6874;52.084;5.090;2022-09-02T01:16:54;13.73;;;13.33;;
13605;SDS011;6874;52.084;5.090;2022-09-02T01:19:34;14.13;;;13.73;;
13605;SDS011;6874;52.084;5.090;2022-09-02T01:22:06;15.07;;;14.60;;
13605;SDS011;6874;52.084;5.090;2022-09-02T01:24:47;15.30;;;14.83;;
13605;SDS011;6874;52.084;5.090;2022-09-02T01:27:14;15.80;;;15.30;;
13605;SDS011;6874;52.084;5.090;2022-09-02T01:29:41;18.13;;;17.57;;
13605;SDS011;6874;52.084;5.090;2022-09-02T01:32:07;17.27;;;16.77;;
13605;SDS011;6874;52.084;5.090;2022-09-02T01:34:32;19.47;;;18.87;;
13605;SDS011;6874;52.084;5.090;2022-09-02T01:36:58;17.83;;;17.30;;
13605;SDS011;6874;52.084;5.090;2022-09-02T01:39:26;21.00;;;20.37;;
13605;SDS011;6874;52.084;5.090;2022-09-02T01:41:52;22.33;;;21.63;;
13605;SDS011;6874;52.084;5.090;2022-09-02T01:44:18;21.83;;;21.17;;
13605;SDS011;6874;52.084;5.090;2022-09-02T01:46:43;24.07;;;23.30;;
13605;SDS011;6874;52.084;5.090;2022-09-02T01:49:09;24.03;;;23.27;;
13605;SDS011;6874;52.084;5.090;2022-09-02T01:51:36;24.03;;;23.27;;
13605;SDS011;6874;52.084;5.090;2022-09-02T01:54:02;23.90;;;23.13;;
13605;SDS011;6874;52.084;5.090;2022-09-02T01:56:28;25.13;;;24.37;;
13605;SDS011;6874;52.084;5.090;2022-09-02T01:58:54;27.23;;;26.37;;
13605;SDS011;6874;52.084;5.090;2022-09-02T02:01:19;27.57;;;26.70;;
13605;SDS011;6874;52.084;5.090;2022-09-02T02:03:45;27.00;;;26.17;;
13605;SDS011;6874;52.084;5.090;2022-09-02T02:06:12;25.87;;;25.03;;
13605;SDS011;6874;52.084;5.090;2022-09-02T02:08:40;28.67;;;27.73;;
13605;SDS011;6874;52.084;5.090;2022-09-02T02:11:07;27.97;;;27.07;;
13605;SDS011;6874;52.084;5.090;2022-09-02T02:13:33;29.03;;;28.10;;
13605;SDS011;6874;52.084;5.090;2022-09-02T02:16:00;29.40;;;28.47;;
13605;SDS011;6874;52.084;5.090;2022-09-02T02:18:26;29.80;;;28.83;;
13605;SDS011;6874;52.084;5.090;2022-09-02T02:20:53;29.67;;;28.70;;
13605;SDS011;6874;52.084;5.090;2022-09-02T02:23:19;28.63;;;27.70;;
13605;SDS011;6874;52.084;5.090;2022-09-02T02:25:46;29.27;;;28.33;;
13605;SDS011;6874;52.084;5.090;2022-09-02T02:28:12;26.33;;;25.50;;
13605;SDS011;6874;52.084;5.090;2022-09-02T02:30:38;28.50;;;27.60;;
13605;SDS011;6874;52.084;5.090;2022-09-02T02:33:04;27.73;;;26.87;;
13605;SDS011;6874;52.084;5.090;2022-09-02T02:35:31;24.10;;;23.33;;
13605;SDS011;6874;52.084;5.090;2022-09-02T02:37:57;28.17;;;27.30;;
13605;SDS011;6874;52.084;5.090;2022-09-02T02:40:26;25.53;;;24.73;;
13605;SDS011;6874;52.084;5.090;2022-09-02T02:42:52;24.80;;;24.03;;
13605;SDS011;6874;52.084;5.090;2022-09-02T02:45:18;24.20;;;23.43;;
13605;SDS011;6874;52.084;5.090;2022-09-02T02:47:45;25.77;;;24.97;;
13605;SDS011;6874;52.084;5.090;2022-09-02T02:50:12;26.50;;;25.67;;
13605;SDS011;6874;52.084;5.090;2022-09-02T02:52:39;23.83;;;23.10;;
13605;SDS011;6874;52.084;5.090;2022-09-02T02:55:06;24.33;;;23.57;;
13605;SDS011;6874;52.084;5.090;2022-09-02T02:57:33;23.50;;;22.77;;
13605;SDS011;6874;52.084;5.090;2022-09-02T03:02:40;21.57;;;20.90;;
13605;SDS011;6874;52.084;5.090;2022-09-02T03:05:07;19.07;;;18.50;;
13605;SDS011;6874;52.084;5.090;2022-09-02T03:07:34;20.40;;;19.77;;
13605;SDS011;6874;52.084;5.090;2022-09-02T03:10:00;20.93;;;20.30;;
13605;SDS011;6874;52.084;5.090;2022-09-02T03:12:27;19.40;;;18.80;;
13605;SDS011;6874;52.084;5.090;2022-09-02T03:14:52;17.43;;;16.90;;
13605;SDS011;6874;52.084;5.090;2022-09-02T03:17:18;16.00;;;15.50;;
13605;SDS011;6874;52.084;5.090;2022-09-02T03:19:45;16.40;;;15.90;;
13605;SDS011;6874;52.084;5.090;2022-09-02T03:22:10;15.43;;;14.97;;
13605;SDS011;6874;52.084;5.090;2022-09-02T03:24:37;15.40;;;14.93;;
13605;SDS011;6874;52.084;5.090;2022-09-02T03:27:03;15.07;;;14.60;;
13605;SDS011;6874;52.084;5.090;2022-09-02T03:29:28;13.57;;;13.17;;
13605;SDS011;6874;52.084;5.090;2022-09-02T03:31:54;14.27;;;13.83;;
13605;SDS011;6874;52.084;5.090;2022-09-02T03:34:20;13.90;;;13.50;;
13605;SDS011;6874;52.084;5.090;2022-09-02T03:36:46;13.23;;;12.83;;
13605;SDS011;6874;52.084;5.090;2022-09-02T03:39:12;13.93;;;13.50;;
13605;SDS011;6874;52.084;5.090;2022-09-02T03:41:37;13.03;;;12.63;;
13605;SDS011;6874;52.084;5.090;2022-09-02T03:44:05;13.77;;;13.37;;
13605;SDS011;6874;52.084;5.090;2022-09-02T03:46:31;13.13;;;12.73;;
13605;SDS011;6874;52.084;5.090;2022-09-02T03:48:57;12.67;;;12.27;;
13605;SDS011;6874;52.084;5.090;2022-09-02T03:51:23;12.63;;;12.23;;
13605;SDS011;6874;52.084;5.090;2022-09-02T03:53:50;12.10;;;11.73;;
13605;SDS011;6874;52.084;5.090;2022-09-02T03:56:17;13.10;;;12.70;;
13605;SDS011;6874;52.084;5.090;2022-09-02T03:58:44;13.53;;;13.13;;
13605;SDS011;6874;52.084;5.090;2022-09-02T04:01:13;13.77;;;13.37;;
13605;SDS011;6874;52.084;5.090;2022-09-02T04:03:39;13.17;;;12.77;;
13605;SDS011;6874;52.084;5.090;2022-09-02T04:06:07;14.87;;;14.43;;
13605;SDS011;6874;52.084;5.090;2022-09-02T04:08:37;13.80;;;13.40;;
13605;SDS011;6874;52.084;5.090;2022-09-02T04:11:07;14.03;;;13.63;;
13605;SDS011;6874;52.084;5.090;2022-09-02T04:13:34;13.50;;;13.10;;
13605;SDS011;6874;52.084;5.090;2022-09-02T04:16:07;13.20;;;12.80;;
13605;SDS011;6874;52.084;5.090;2022-09-02T04:18:37;13.77;;;13.37;;
13605;SDS011;6874;52.084;5.090;2022-09-02T04:21:03;14.93;;;14.47;;
13605;SDS011;6874;52.084;5.090;2022-09-02T04:23:29;16.70;;;16.20;;
13605;SDS011;6874;52.084;5.090;2022-09-02T04:25:56;16.97;;;16.47;;
13605;SDS011;6874;52.084;5.090;2022-09-02T04:28:22;17.33;;;16.80;;
13605;SDS011;6874;52.084;5.090;2022-09-02T04:30:49;19.13;;;18.53;;
13605;SDS011;6874;52.084;5.090;2022-09-02T04:33:15;19.50;;;18.90;;
13605;SDS011;6874;52.084;5.090;2022-09-02T04:35:41;19.67;;;19.07;;
13605;SDS011;6874;52.084;5.090;2022-09-02T04:38:09;22.40;;;21.70;;
13605;SDS011;6874;52.084;5.090;2022-09-02T04:40:39;22.33;;;21.63;;
13605;SDS011;6874;52.084;5.090;2022-09-02T04:43:06;24.33;;;23.57;;
13605;SDS011;6874;52.084;5.090;2022-09-02T04:45:32;29.80;;;28.87;;
13605;SDS011;6874;52.084;5.090;2022-09-02T04:47:57;27.10;;;26.27;;
13605;SDS011;6874;52.084;5.090;2022-09-02T04:50:23;28.37;;;27.47;;
13605;SDS011;6874;52.084;5.090;2022-09-02T04:52:49;31.93;;;30.93;;
13605;SDS011;6874;52.084;5.090;2022-09-02T04:55:14;33.33;;;32.27;;
13605;SDS011;6874;52.084;5.090;2022-09-02T04:57:40;35.47;;;34.33;;
13605;SDS011;6874;52.084;5.090;2022-09-02T05:00:06;35.43;;;34.30;;
13605;SDS011;6874;52.084;5.090;2022-09-02T05:02:33;40.20;;;38.90;;
13605;SDS011;6874;52.084;5.090;2022-09-02T05:04:59;38.57;;;37.33;;
13605;SDS011;6874;52.084;5.090;2022-09-02T05:07:24;40.03;;;38.77;;
13605;SDS011;6874;52.084;5.090;2022-09-02T05:09:55;45.27;;;43.83;;
13605;SDS011;6874;52.084;5.090;2022-09-02T05:12:21;44.83;;;43.40;;
13605;SDS011;6874;52.084;5.090;2022-09-02T05:14:49;43.47;;;42.10;;
13605;SDS011;6874;52.084;5.090;2022-09-02T05:17:14;45.97;;;44.50;;
13605;SDS011;6874;52.084;5.090;2022-09-02T05:19:40;46.50;;;45.00;;
13605;SDS011;6874;52.084;5.090;2022-09-02T05:22:06;44.23;;;42.80;;
13605;SDS011;6874;52.084;5.090;2022-09-02T05:24:31;45.97;;;44.50;;
13605;SDS011;6874;52.084;5.090;2022-09-02T05:26:57;45.90;;;44.43;;
13605;SDS011;6874;52.084;5.090;2022-09-02T05:29:23;44.60;;;43.17;;
13605;SDS011;6874;52.084;5.090;2022-09-02T05:31:48;42.93;;;41.57;;
13605;SDS011;6874;52.084;5.090;2022-09-02T05:34:14;44.70;;;43.30;;
13605;SDS011;6874;52.084;5.090;2022-09-02T05:36:41;42.93;;;41.57;;
13605;SDS011;6874;52.084;5.090;2022-09-02T05:39:07;46.13;;;44.67;;
13605;SDS011;6874;52.084;5.090;2022-09-02T05:41:33;44.10;;;42.70;;
13605;SDS011;6874;52.084;5.090;2022-09-02T05:43:59;44.30;;;42.87;;
13605;SDS011;6874;52.084;5.090;2022-09-02T05:46:26;47.20;;;45.70;;
13605;SDS011;6874;52.084;5.090;2022-09-02T05:48:53;44.57;;;43.13;;
13605;SDS011;6874;52.084;5.090;2022-09-02T05:54:09;43.53;;;42.13;;
13605;SDS011;6874;52.084;5.090;2022-09-02T05:56:43;43.73;;;42.33;;
13605;SDS011;6874;52.084;5.090;2022-09-02T05:59:20;44.13;;;42.73;;
13605;SDS011;6874;52.084;5.090;2022-09-02T06:01:52;43.87;;;42.43;;
13605;SDS011;6874;52.084;5.090;2022-09-02T06:09:27;44.47;;;43.03;;
13605;SDS011;6874;52.084;5.090;2022-09-02T06:11:53;43.03;;;41.67;;
13605;SDS011;6874;52.084;5.090;2022-09-02T06:14:21;44.03;;;42.60;;
13605;SDS011;6874;52.084;5.090;2022-09-02T06:16:49;46.03;;;44.57;;
13605;SDS011;6874;52.084;5.090;2022-09-02T06:19:17;44.87;;;43.40;;
13605;SDS011;6874;52.084;5.090;2022-09-02T06:21:43;47.13;;;45.60;;
13605;SDS011;6874;52.084;5.090;2022-09-02T06:24:09;45.60;;;44.13;;
13605;SDS011;6874;52.084;5.090;2022-09-02T06:26:36;45.30;;;43.83;;
13605;SDS011;6874;52.084;5.090;2022-09-02T06:29:03;45.17;;;43.70;;
13605;SDS011;6874;52.084;5.090;2022-09-02T06:31:29;44.40;;;42.97;;
13605;SDS011;6874;52.084;5.090;2022-09-02T06:33:55;44.30;;;42.87;;
13605;SDS011;6874;52.084;5.090;2022-09-02T06:36:22;43.80;;;42.37;;
13605;SDS011;6874;52.084;5.090;2022-09-02T06:38:51;47.23;;;45.70;;
13605;SDS011;6874;52.084;5.090;2022-09-02T06:41:19;45.73;;;44.27;;
13605;SDS011;6874;52.084;5.090;2022-09-02T06:43:47;42.63;;;41.27;;
13605;SDS011;6874;52.084;5.090;2022-09-02T06:46:20;42.77;;;41.40;;
13605;SDS011;6874;52.084;5.090;2022-09-02T06:48:48;45.63;;;44.17;;
13605;SDS011;6874;52.084;5.090;2022-09-02T06:51:59;43.57;;;42.17;;
13605;SDS011;6874;52.084;5.090;2022-09-02T06:54:04;41.53;;;40.20;;
13605;SDS011;6874;52.084;5.090;2022-09-02T06:56:31;43.10;;;41.73;;
13605;SDS011;6874;52.084;5.090;2022-09-02T06:58:58;44.17;;;42.73;;
13605;SDS011;6874;52.084;5.090;2022-09-02T07:01:24;41.77;;;40.43;;
13605;SDS011;6874;52.084;5.090;2022-09-02T07:03:52;44.40;;;42.97;;
13605;SDS011;6874;52.084;5.090;2022-09-02T07:06:41;40.17;;;38.87;;
13605;SDS011;6874;52.084;5.090;2022-09-02T07:09:10;41.03;;;39.70;;
13605;SDS011;6874;52.084;5.090;2022-09-02T07:11:37;45.30;;;43.83;;
13605;SDS011;6874;52.084;5.090;2022-09-02T07:14:03;39.97;;;38.70;;
13605;SDS011;6874;52.084;5.090;2022-09-02T07:16:31;42.13;;;40.80;;
13605;SDS011;6874;52.084;5.090;2022-09-02T07:18:58;41.50;;;40.17;;
13605;SDS011;6874;52.084;5.090;2022-09-02T07:21:25;40.43;;;39.17;;
13605;SDS011;6874;52.084;5.090;2022-09-02T07:23:53;40.27;;;39.00;;
13605;SDS011;6874;52.084;5.090;2022-09-02T07:26:20;38.00;;;36.77;;
13605;SDS011;6874;52.084;5.090;2022-09-02T07:28:45;38.27;;;37.03;;
13605;SDS011;6874;52.084;5.090;2022-09-02T07:31:12;35.87;;;34.73;;
13605;SDS011;6874;52.084;5.090;2022-09-02T07:33:39;36.07;;;34.90;;
13605;SDS011;6874;52.084;5.090;2022-09-02T07:36:06;34.20;;;33.13;;
13605;SDS011;6874;52.084;5.090;2022-09-02T07:38:34;34.03;;;32.97;;
13605;SDS011;6874;52.084;5.090;2022-09-02T07:41:00;34.90;;;33.80;;
13605;SDS011;6874;52.084;5.090;2022-09-02T07:43:27;32.60;;;31.57;;
13605;SDS011;6874;52.084;5.090;2022-09-02T07:45:54;32.47;;;31.43;;
13605;SDS011;6874;52.084;5.090;2022-09-02T07:48:23;30.60;;;29.63;;
13605;SDS011;6874;52.084;5.090;2022-09-02T07:50:49;29.07;;;28.17;;
13605;SDS011;6874;52.084;5.090;2022-09-02T07:53:15;28.03;;;27.17;;
13605;SDS011;6874;52.084;5.090;2022-09-02T07:55:42;27.27;;;26.40;;
13605;SDS011;6874;52.084;5.090;2022-09-02T07:58:07;26.10;;;25.27;;
13605;SDS011;6874;52.084;5.090;2022-09-02T08:00:34;25.20;;;24.40;;
13605;SDS011;6874;52.084;5.090;2022-09-02T08:03:01;26.00;;;25.17;;
13605;SDS011;6874;52.084;5.090;2022-09-02T08:05:28;27.10;;;26.20;;
13605;SDS011;6874;52.084;5.090;2022-09-02T08:07:55;25.40;;;24.60;;
13605;SDS011;6874;52.084;5.090;2022-09-02T08:10:21;24.53;;;23.77;;
13605;SDS011;6874;52.084;5.090;2022-09-02T08:12:48;23.27;;;22.53;;
13605;SDS011;6874;52.084;5.090;2022-09-02T08:15:15;22.57;;;21.87;;
13605;SDS011;6874;52.084;5.090;2022-09-02T08:17:41;20.77;;;20.13;;
13605;SDS011;6874;52.084;5.090;2022-09-02T08:20:09;22.50;;;21.80;;
13605;SDS011;6874;52.084;5.090;2022-09-02T08:22:38;22.03;;;21.33;;
13605;SDS011;6874;52.084;5.090;2022-09-02T08:25:04;22.83;;;22.10;;
13605;SDS011;6874;52.084;5.090;2022-09-02T08:27:31;20.57;;;19.93;;
13605;SDS011;6874;52.084;5.090;2022-09-02T08:29:57;19.20;;;18.60;;
13605;SDS011;6874;52.084;5.090;2022-09-02T08:32:23;35.17;;;34.03;;
13605;SDS011;6874;52.084;5.090;2022-09-02T08:34:49;60.07;;;57.90;;
13605;SDS011;6874;52.084;5.090;2022-09-02T08:37:15;48.73;;;47.13;;
13605;SDS011;6874;52.084;5.090;2022-09-02T08:39:42;52.97;;;51.27;;
13605;SDS011;6874;52.084;5.090;2022-09-02T08:42:12;63.30;;;61.23;;
13605;SDS011;6874;52.084;5.090;2022-09-02T08:44:53;59.47;;;57.57;;
13605;SDS011;6874;52.084;5.090;2022-09-02T08:47:25;68.63;;;66.43;;
13605;SDS011;6874;52.084;5.090;2022-09-02T08:50:04;70.60;;;68.27;;
13605;SDS011;6874;52.084;5.090;2022-09-02T08:52:44;70.93;;;68.63;;
13605;SDS011;6874;52.084;5.090;2022-09-02T08:55:32;73.57;;;71.20;;
13605;SDS011;6874;52.084;5.090;2022-09-02T08:58:07;62.40;;;60.40;;
13605;SDS011;6874;52.084;5.090;2022-09-02T09:00:34;55.23;;;53.43;;
13605;SDS011;6874;52.084;5.090;2022-09-02T09:03:13;45.53;;;44.07;;
13605;SDS011;6874;52.084;5.090;2022-09-02T09:11:42;40.03;;;38.73;;
13605;SDS011;6874;52.084;5.090;2022-09-02T09:14:20;41.17;;;39.80;;
13605;SDS011;6874;52.084;5.090;2022-09-02T09:16:57;30.37;;;29.40;;
13605;SDS011;6874;52.084;5.090;2022-09-02T09:19:28;26.77;;;25.90;;
13605;SDS011;6874;52.084;5.090;2022-09-02T09:22:09;24.23;;;23.47;;
13605;SDS011;6874;52.084;5.090;2022-09-02T09:24:49;24.90;;;24.10;;
13605;SDS011;6874;52.084;5.090;2022-09-02T09:27:18;29.07;;;28.10;;
13605;SDS011;6874;52.084;5.090;2022-09-02T09:29:46;48.67;;;46.43;;
13605;SDS011;6874;52.084;5.090;2022-09-02T09:32:19;36.10;;;34.87;;
13605;SDS011;6874;52.084;5.090;2022-09-02T09:35:03;37.13;;;35.87;;
13605;SDS011;6874;52.084;5.090;2022-09-02T09:37:38;44.13;;;42.60;;
13605;SDS011;6874;52.084;5.090;2022-09-02T09:40:22;47.87;;;46.20;;
13605;SDS011;6874;52.084;5.090;2022-09-02T09:45:35;51.40;;;49.57;;
13605;SDS011;6874;52.084;5.090;2022-09-02T09:48:09;50.70;;;48.93;;
13605;SDS011;6874;52.084;5.090;2022-09-02T09:50:40;57.43;;;55.20;;
13605;SDS011;6874;52.084;5.090;2022-09-02T09:53:17;48.13;;;46.50;;
13605;SDS011;6874;52.084;5.090;2022-09-02T09:58:23;48.77;;;47.13;;
13605;SDS011;6874;52.084;5.090;2022-09-02T10:00:56;55.23;;;53.37;;
13605;SDS011;6874;52.084;5.090;2022-09-02T10:03:27;57.90;;;55.93;;
13605;SDS011;6874;52.084;5.090;2022-09-02T10:05:55;62.87;;;60.70;;
13605;SDS011;6874;52.084;5.090;2022-09-02T10:08:23;67.90;;;65.53;;
13605;SDS011;6874;52.084;5.090;2022-09-02T10:11:18;70.03;;;67.57;;
13605;SDS011;6874;52.084;5.090;2022-09-02T10:13:46;67.47;;;65.10;;
13605;SDS011;6874;52.084;5.090;2022-09-02T10:22:19;61.87;;;59.77;;
13605;SDS011;6874;52.084;5.090;2022-09-02T10:27:40;64.20;;;62.07;;
13605;SDS011;6874;52.084;5.090;2022-09-02T10:30:20;58.47;;;56.53;;
13605;SDS011;6874;52.084;5.090;2022-09-02T10:35:42;71.87;;;69.53;;
13605;SDS011;6874;52.084;5.090;2022-09-02T10:38:41;82.50;;;79.83;;
13605;SDS011;6874;52.084;5.090;2022-09-02T10:46:52;86.27;;;83.50;;
13605;SDS011;6874;52.084;5.090;2022-09-02T10:49:27;81.37;;;78.77;;
13605;SDS011;6874;52.084;5.090;2022-09-02T10:57:11;57.53;;;55.70;;
13605;SDS011;6874;52.084;5.090;2022-09-02T10:59:43;49.30;;;47.70;;
13605;SDS011;6874;52.084;5.090;2022-09-02T11:05:04;54.73;;;52.93;;
13605;SDS011;6874;52.084;5.090;2022-09-02T11:07:37;50.40;;;48.70;;
13605;SDS011;6874;52.084;5.090;2022-09-02T11:10:24;48.77;;;47.07;;
13605;SDS011;6874;52.084;5.090;2022-09-02T11:12:59;53.00;;;51.10;;
13605;SDS011;6874;52.084;5.090;2022-09-02T11:21:07;42.07;;;40.53;;
13605;SDS011;6874;52.084;5.090;2022-09-02T11:26:37;42.70;;;41.07;;
13605;SDS011;6874;52.084;5.090;2022-09-02T11:29:25;40.40;;;38.80;;
13605;SDS011;6874;52.084;5.090;2022-09-02T11:32:14;46.50;;;44.63;;
13605;SDS011;6874;52.084;5.090;2022-09-02T11:34:47;74.13;;;71.30;;
13605;SDS011;6874;52.084;5.090;2022-09-02T11:37:37;130.77;;;125.97;;
13605;SDS011;6874;52.084;5.090;2022-09-02T11:40:30;168.50;;;162.50;;
13605;SDS011;6874;52.084;5.090;2022-09-02T11:43:16;197.30;;;190.23;;
13605;SDS011;6874;52.084;5.090;2022-09-02T11:55:13;319.27;;;308.07;;
13605;SDS011;6874;52.084;5.090;2022-09-02T11:57:51;335.83;;;323.93;;
13605;SDS011;6874;52.084;5.090;2022-09-02T12:00:35;340.47;;;328.40;;
13605;SDS011;6874;52.084;5.090;2022-09-02T12:03:20;335.00;;;323.17;;
13605;SDS011;6874;52.084;5.090;2022-09-02T12:06:02;329.53;;;317.83;;
13605;SDS011;6874;52.084;5.090;2022-09-02T12:10:59;305.33;;;294.47;;
13605;SDS011;6874;52.084;5.090;2022-09-02T12:13:39;276.40;;;266.63;;
13605;SDS011;6874;52.084;5.090;2022-09-02T12:21:18;244.13;;;235.77;;
13605;SDS011;6874;52.084;5.090;2022-09-02T12:26:24;261.60;;;252.37;;
13605;SDS011;6874;52.084;5.090;2022-09-02T12:28:52;276.33;;;266.57;;
13605;SDS011;6874;52.084;5.090;2022-09-02T12:36:45;306.10;;;295.23;;
13605;SDS011;6874;52.084;5.090;2022-09-02T12:47:07;346.03;;;333.70;;
13605;SDS011;6874;52.084;5.090;2022-09-02T12:53:07;331.53;;;320.03;;
13605;SDS011;6874;52.084;5.090;2022-09-02T12:58:33;251.87;;;243.53;;
13605;SDS011;6874;52.084;5.090;2022-09-02T13:01:16;248.03;;;240.00;;
13605;SDS011;6874;52.084;5.090;2022-09-02T13:04:07;224.17;;;216.97;;
13605;SDS011;6874;52.084;5.090;2022-09-02T13:18:00;203.27;;;197.10;;
13605;SDS011;6874;52.084;5.090;2022-09-02T13:25:49;241.47;;;234.10;;
13605;SDS011;6874;52.084;5.090;2022-09-02T13:31:23;273.63;;;265.23;;
13605;SDS011;6874;52.084;5.090;2022-09-02T13:33:58;272.70;;;264.33;;
13605;SDS011;6874;52.084;5.090;2022-09-02T13:36:30;268.87;;;260.63;;
13605;SDS011;6874;52.084;5.090;2022-09-02T13:39:16;261.30;;;253.30;;
13605;SDS011;6874;52.084;5.090;2022-09-02T13:41:43;240.20;;;232.90;;
13605;SDS011;6874;52.084;5.090;2022-09-02T13:44:10;262.53;;;254.50;;
13605;SDS011;6874;52.084;5.090;2022-09-02T13:46:47;255.20;;;247.37;;
13605;SDS011;6874;52.084;5.090;2022-09-02T13:49:19;293.13;;;284.07;;
13605;SDS011;6874;52.084;5.090;2022-09-02T13:51:47;308.23;;;298.57;;
13605;SDS011;6874;52.084;5.090;2022-09-02T13:54:18;300.53;;;291.07;;
13605;SDS011;6874;52.084;5.090;2022-09-02T13:56:52;295.33;;;286.10;;
13605;SDS011;6874;52.084;5.090;2022-09-02T13:59:34;291.10;;;282.00;;
13605;SDS011;6874;52.084;5.090;2022-09-02T14:02:19;286.77;;;277.80;;
13605;SDS011;6874;52.084;5.090;2022-09-02T14:05:04;262.77;;;254.60;;
13605;SDS011;6874;52.084;5.090;2022-09-02T14:07:52;241.50;;;234.07;;
13605;SDS011;6874;52.084;5.090;2022-09-02T14:10:21;233.17;;;225.97;;
13605;SDS011;6874;52.084;5.090;2022-09-02T14:12:51;228.53;;;221.47;;
13605;SDS011;6874;52.084;5.090;2022-09-02T14:15:22;206.43;;;200.03;;
13605;SDS011;6874;52.084;5.090;2022-09-02T14:23:46;155.57;;;150.60;;
13605;SDS011;6874;52.084;5.090;2022-09-02T14:26:19;160.97;;;155.87;;
13605;SDS011;6874;52.084;5.090;2022-09-02T14:28:50;138.70;;;134.30;;
13605;SDS011;6874;52.084;5.090;2022-09-02T14:31:23;129.37;;;125.27;;
13605;SDS011;6874;52.084;5.090;2022-09-02T14:33:54;124.97;;;121.00;;
13605;SDS011;6874;52.084;5.090;2022-09-02T14:38:50;108.03;;;104.63;;
13605;SDS011;6874;52.084;5.090;2022-09-02T14:41:25;86.13;;;83.40;;
13605;SDS011;6874;52.084;5.090;2022-09-02T14:43:55;86.30;;;83.57;;
13605;SDS011;6874;52.084;5.090;2022-09-02T14:48:51;84.30;;;81.60;;
13605;SDS011;6874;52.084;5.090;2022-09-02T14:51:42;82.73;;;80.10;;
13605;SDS011;6874;52.084;5.090;2022-09-02T14:54:09;77.50;;;75.00;;
13605;SDS011;6874;52.084;5.090;2022-09-02T14:56:45;89.27;;;86.37;;
13605;SDS011;6874;52.084;5.090;2022-09-02T14:59:15;83.00;;;80.33;;
13605;SDS011;6874;52.084;5.090;2022-09-02T15:01:43;87.13;;;84.30;;
13605;SDS011;6874;52.084;5.090;2022-09-02T15:04:15;83.60;;;80.80;;
13605;SDS011;6874;52.084;5.090;2022-09-02T15:06:42;90.10;;;87.07;;
13605;SDS011;6874;52.084;5.090;2022-09-02T15:09:09;96.97;;;93.67;;
13605;SDS011;6874;52.084;5.090;2022-09-02T15:11:35;93.73;;;90.57;;
13605;SDS011;6874;52.084;5.090;2022-09-02T15:14:03;98.47;;;95.17;;
13605;SDS011;6874;52.084;5.090;2022-09-02T15:16:29;92.13;;;89.03;;
13605;SDS011;6874;52.084;5.090;2022-09-02T15:18:54;100.83;;;97.47;;
13605;SDS011;6874;52.084;5.090;2022-09-02T15:21:20;94.97;;;91.80;;
13605;SDS011;6874;52.084;5.090;2022-09-02T15:23:46;97.47;;;94.27;;
13605;SDS011;6874;52.084;5.090;2022-09-02T15:26:13;94.90;;;91.73;;
13605;SDS011;6874;52.084;5.090;2022-09-02T15:28:39;89.67;;;86.67;;
13605;SDS011;6874;52.084;5.090;2022-09-02T15:31:05;81.53;;;78.87;;
13605;SDS011;6874;52.084;5.090;2022-09-02T15:33:31;85.43;;;82.60;;
13605;SDS011;6874;52.084;5.090;2022-09-02T15:36:04;81.30;;;78.60;;
13605;SDS011;6874;52.084;5.090;2022-09-02T15:38:30;88.03;;;85.13;;
13605;SDS011;6874;52.084;5.090;2022-09-02T15:40:56;93.20;;;90.10;;
13605;SDS011;6874;52.084;5.090;2022-09-02T15:43:36;87.43;;;84.63;;
13605;SDS011;6874;52.084;5.090;2022-09-02T15:46:02;93.67;;;90.57;;
13605;SDS011;6874;52.084;5.090;2022-09-02T15:48:38;98.93;;;95.70;;
13605;SDS011;6874;52.084;5.090;2022-09-02T15:51:14;102.30;;;99.00;;
13605;SDS011;6874;52.084;5.090;2022-09-02T15:53:41;93.03;;;90.03;;
13605;SDS011;6874;52.084;5.090;2022-09-02T15:56:20;90.60;;;87.67;;
13605;SDS011;6874;52.084;5.090;2022-09-02T15:58:53;88.77;;;85.90;;
13605;SDS011;6874;52.084;5.090;2022-09-02T16:01:21;97.53;;;94.40;;
13605;SDS011;6874;52.084;5.090;2022-09-02T16:03:58;102.33;;;99.03;;
13605;SDS011;6874;52.084;5.090;2022-09-02T16:06:26;101.40;;;98.10;;
13605;SDS011;6874;52.084;5.090;2022-09-02T16:08:53;100.17;;;96.90;;
13605;SDS011;6874;52.084;5.090;2022-09-02T16:11:19;92.50;;;89.50;;
13605;SDS011;6874;52.084;5.090;2022-09-02T16:13:45;102.07;;;98.80;;
13605;SDS011;6874;52.084;5.090;2022-09-02T16:16:11;97.33;;;94.17;;
13605;SDS011;6874;52.084;5.090;2022-09-02T16:18:38;104.73;;;101.37;;
13605;SDS011;6874;52.084;5.090;2022-09-02T16:21:05;100.67;;;97.43;;
13605;SDS011;6874;52.084;5.090;2022-09-02T16:23:32;86.33;;;83.50;;
13605;SDS011;6874;52.084;5.090;2022-09-02T16:26:09;75.30;;;72.87;;
13605;SDS011;6874;52.084;5.090;2022-09-02T16:28:50;83.93;;;81.23;;
13605;SDS011;6874;52.084;5.090;2022-09-02T16:31:18;93.43;;;90.43;;
13605;SDS011;6874;52.084;5.090;2022-09-02T16:33:51;82.87;;;80.13;;
13605;SDS011;6874;52.084;5.090;2022-09-02T16:36:22;84.77;;;82.03;;
13605;SDS011;6874;52.084;5.090;2022-09-02T16:38:49;85.43;;;82.67;;
13605;SDS011;6874;52.084;5.090;2022-09-02T16:41:26;102.57;;;99.27;;
13605;SDS011;6874;52.084;5.090;2022-09-02T16:43:53;97.37;;;94.27;;
13605;SDS011;6874;52.084;5.090;2022-09-02T16:46:20;111.20;;;107.63;;
13605;SDS011;6874;52.084;5.090;2022-09-02T16:48:46;96.37;;;93.27;;
13605;SDS011;6874;52.084;5.090;2022-09-02T16:51:13;84.20;;;81.50;;
13605;SDS011;6874;52.084;5.090;2022-09-02T16:53:39;79.10;;;76.60;;
13605;SDS011;6874;52.084;5.090;2022-09-02T16:56:05;74.90;;;72.50;;
13605;SDS011;6874;52.084;5.090;2022-09-02T16:58:34;79.67;;;77.10;;